sensor_id;sensor_type;location;lat;lon;timestamp;P1;durP1;ratioP1;P2;durP2;ratioP2
18376;SDS011;9315;52.624;13.544;2023-08-06T00:02:27;8.80;;;5.32;;
18376;SDS011;9315;52.624;13.544;2023-08-06T00:04:54;6.70;;;5.28;;
18376;SDS011;9315;52.624;13.544;2023-08-06T00:07:21;10.63;;;6.43;;
18376;SDS011;9315;52.624;13.544;2023-08-06T00:09:48;8.85;;;6.47;;
18376;SDS011;9315;52.624;13.544;2023-08-06T00:12:15;11.02;;;6.13;;
18376;SDS011;9315;52.624;13.544;2023-08-06T00:14:42;8.68;;;6.47;;
18376;SDS011;9315;52.624;13.544;2023-08-06T00:17:10;8.07;;;6.25;;
18376;SDS011;9315;52.624;13.544;2023-08-06T00:19:37;7.75;;;6.47;;
18376;SDS011;9315;52.624;13.544;2023-08-06T00:22:04;10.03;;;5.97;;
18376;SDS011;9315;52.624;13.544;2023-08-06T00:24:31;7.82;;;5.75;;
18376;SDS011;9315;52.624;13.544;2023-08-06T00:27:00;9.38;;;6.55;;
18376;SDS011;9315;52.624;13.544;2023-08-06T00:29:27;7.72;;;6.57;;
18376;SDS011;9315;52.624;13.544;2023-08-06T00:31:55;10.95;;;6.25;;
18376;SDS011;9315;52.624;13.544;2023-08-06T00:34:22;8.43;;;6.65;;
18376;SDS011;9315;52.624;13.544;2023-08-06T00:36:49;9.57;;;7.25;;
18376;SDS011;9315;52.624;13.544;2023-08-06T00:39:16;11.77;;;6.13;;
18376;SDS011;9315;52.624;13.544;2023-08-06T00:41:44;6.75;;;5.13;;
18376;SDS011;9315;52.624;13.544;2023-08-06T00:44:11;7.18;;;6.18;;
18376;SDS011;9315;52.624;13.544;2023-08-06T00:46:38;10.20;;;6.55;;
18376;SDS011;9315;52.624;13.544;2023-08-06T00:49:06;9.93;;;6.45;;
18376;SDS011;9315;52.624;13.544;2023-08-06T00:51:34;8.23;;;6.20;;
18376;SDS011;9315;52.624;13.544;2023-08-06T00:54:01;9.03;;;6.67;;
18376;SDS011;9315;52.624;13.544;2023-08-06T00:56:29;9.13;;;5.78;;
18376;SDS011;9315;52.624;13.544;2023-08-06T00:58:56;12.82;;;7.28;;
18376;SDS011;9315;52.624;13.544;2023-08-06T01:01:24;7.68;;;6.30;;
18376;SDS011;9315;52.624;13.544;2023-08-06T01:03:51;10.25;;;6.90;;
18376;SDS011;9315;52.624;13.544;2023-08-06T01:06:22;8.43;;;7.07;;
18376;SDS011;9315;52.624;13.544;2023-08-06T01:09:35;8.85;;;6.95;;
18376;SDS011;9315;52.624;13.544;2023-08-06T01:12:25;9.50;;;7.32;;
18376;SDS011;9315;52.624;13.544;2023-08-06T01:15:47;8.05;;;7.00;;
18376;SDS011;9315;52.624;13.544;2023-08-06T01:18:20;7.60;;;6.72;;
18376;SDS011;9315;52.624;13.544;2023-08-06T01:20:47;9.70;;;6.90;;
18376;SDS011;9315;52.624;13.544;2023-08-06T01:23:16;10.05;;;7.30;;
18376;SDS011;9315;52.624;13.544;2023-08-06T01:31:57;7.43;;;6.63;;
18376;SDS011;9315;52.624;13.544;2023-08-06T01:34:25;10.32;;;8.05;;
18376;SDS011;9315;52.624;13.544;2023-08-06T01:36:59;8.27;;;7.40;;
18376;SDS011;9315;52.624;13.544;2023-08-06T01:39:27;9.97;;;7.97;;
18376;SDS011;9315;52.624;13.544;2023-08-06T01:41:59;11.63;;;7.22;;
18376;SDS011;9315;52.624;13.544;2023-08-06T01:44:26;9.10;;;7.18;;
18376;SDS011;9315;52.624;13.544;2023-08-06T01:46:53;7.72;;;6.93;;
18376;SDS011;9315;52.624;13.544;2023-08-06T01:49:20;9.18;;;6.40;;
18376;SDS011;9315;52.624;13.544;2023-08-06T01:51:48;8.63;;;7.18;;
18376;SDS011;9315;52.624;13.544;2023-08-06T01:54:15;7.85;;;6.78;;
18376;SDS011;9315;52.624;13.544;2023-08-06T01:56:42;6.22;;;4.72;;
18376;SDS011;9315;52.624;13.544;2023-08-06T01:59:10;8.73;;;6.07;;
18376;SDS011;9315;52.624;13.544;2023-08-06T02:01:37;8.73;;;6.68;;
18376;SDS011;9315;52.624;13.544;2023-08-06T02:04:04;6.53;;;5.07;;
18376;SDS011;9315;52.624;13.544;2023-08-06T02:06:31;7.80;;;6.60;;
18376;SDS011;9315;52.624;13.544;2023-08-06T02:08:58;8.10;;;6.75;;
18376;SDS011;9315;52.624;13.544;2023-08-06T02:11:25;9.63;;;6.37;;
18376;SDS011;9315;52.624;13.544;2023-08-06T02:13:52;6.80;;;6.10;;
18376;SDS011;9315;52.624;13.544;2023-08-06T02:16:20;10.98;;;7.47;;
18376;SDS011;9315;52.624;13.544;2023-08-06T02:18:48;7.90;;;7.07;;
18376;SDS011;9315;52.624;13.544;2023-08-06T02:21:15;9.52;;;7.40;;
18376;SDS011;9315;52.624;13.544;2023-08-06T02:23:42;6.32;;;5.72;;
18376;SDS011;9315;52.624;13.544;2023-08-06T02:26:09;9.90;;;6.50;;
18376;SDS011;9315;52.624;13.544;2023-08-06T02:28:36;8.57;;;6.73;;
18376;SDS011;9315;52.624;13.544;2023-08-06T02:31:04;8.77;;;6.67;;
18376;SDS011;9315;52.624;13.544;2023-08-06T02:33:33;8.27;;;6.90;;
18376;SDS011;9315;52.624;13.544;2023-08-06T02:36:00;9.77;;;7.68;;
18376;SDS011;9315;52.624;13.544;2023-08-06T02:38:32;6.95;;;6.25;;
18376;SDS011;9315;52.624;13.544;2023-08-06T02:41:01;8.40;;;6.77;;
18376;SDS011;9315;52.624;13.544;2023-08-06T02:43:30;10.57;;;7.53;;
18376;SDS011;9315;52.624;13.544;2023-08-06T02:45:58;8.77;;;6.78;;
18376;SDS011;9315;52.624;13.544;2023-08-06T02:48:26;9.87;;;6.97;;
18376;SDS011;9315;52.624;13.544;2023-08-06T02:50:56;9.68;;;8.02;;
18376;SDS011;9315;52.624;13.544;2023-08-06T02:53:28;7.05;;;5.80;;
18376;SDS011;9315;52.624;13.544;2023-08-06T02:55:55;11.90;;;7.53;;
18376;SDS011;9315;52.624;13.544;2023-08-06T02:58:22;6.53;;;5.07;;
18376;SDS011;9315;52.624;13.544;2023-08-06T03:00:59;6.93;;;6.22;;
18376;SDS011;9315;52.624;13.544;2023-08-06T03:03:33;6.57;;;5.83;;
18376;SDS011;9315;52.624;13.544;2023-08-06T03:06:00;6.75;;;5.15;;
18376;SDS011;9315;52.624;13.544;2023-08-06T03:08:28;7.17;;;6.23;;
18376;SDS011;9315;52.624;13.544;2023-08-06T03:10:55;9.20;;;7.25;;
18376;SDS011;9315;52.624;13.544;2023-08-06T03:13:22;9.03;;;6.47;;
18376;SDS011;9315;52.624;13.544;2023-08-06T03:15:53;8.23;;;6.50;;
18376;SDS011;9315;52.624;13.544;2023-08-06T03:18:23;9.55;;;6.85;;
18376;SDS011;9315;52.624;13.544;2023-08-06T03:20:52;8.80;;;6.70;;
18376;SDS011;9315;52.624;13.544;2023-08-06T03:23:19;8.90;;;6.30;;
18376;SDS011;9315;52.624;13.544;2023-08-06T03:25:46;6.53;;;5.80;;
18376;SDS011;9315;52.624;13.544;2023-08-06T03:28:14;7.43;;;6.40;;
18376;SDS011;9315;52.624;13.544;2023-08-06T03:30:41;10.17;;;6.50;;
18376;SDS011;9315;52.624;13.544;2023-08-06T03:33:08;6.60;;;6.00;;
18376;SDS011;9315;52.624;13.544;2023-08-06T03:35:36;6.30;;;5.70;;
18376;SDS011;9315;52.624;13.544;2023-08-06T03:38:03;8.07;;;5.50;;
18376;SDS011;9315;52.624;13.544;2023-08-06T03:40:30;5.85;;;5.05;;
18376;SDS011;9315;52.624;13.544;2023-08-06T03:42:57;5.57;;;5.03;;
18376;SDS011;9315;52.624;13.544;2023-08-06T03:45:24;5.23;;;4.70;;
18376;SDS011;9315;52.624;13.544;2023-08-06T03:47:52;6.27;;;5.00;;
18376;SDS011;9315;52.624;13.544;2023-08-06T03:50:19;7.33;;;5.80;;
18376;SDS011;9315;52.624;13.544;2023-08-06T03:52:46;6.70;;;5.47;;
18376;SDS011;9315;52.624;13.544;2023-08-06T03:55:13;6.67;;;5.57;;
18376;SDS011;9315;52.624;13.544;2023-08-06T03:57:40;7.37;;;5.43;;
18376;SDS011;9315;52.624;13.544;2023-08-06T04:00:08;11.90;;;5.20;;
18376;SDS011;9315;52.624;13.544;2023-08-06T04:02:35;6.13;;;4.67;;
18376;SDS011;9315;52.624;13.544;2023-08-06T04:05:03;6.93;;;4.70;;
18376;SDS011;9315;52.624;13.544;2023-08-06T04:07:30;5.13;;;4.63;;
18376;SDS011;9315;52.624;13.544;2023-08-06T04:09:58;6.07;;;5.47;;
18376;SDS011;9315;52.624;13.544;2023-08-06T04:12:29;8.27;;;5.40;;
18376;SDS011;9315;52.624;13.544;2023-08-06T04:14:57;8.67;;;5.43;;
18376;SDS011;9315;52.624;13.544;2023-08-06T04:17:25;7.78;;;5.07;;
18376;SDS011;9315;52.624;13.544;2023-08-06T04:19:53;5.60;;;4.97;;
18376;SDS011;9315;52.624;13.544;2023-08-06T04:22:21;7.00;;;4.93;;
18376;SDS011;9315;52.624;13.544;2023-08-06T04:24:48;7.07;;;5.60;;
18376;SDS011;9315;52.624;13.544;2023-08-06T04:27:16;6.47;;;5.47;;
18376;SDS011;9315;52.624;13.544;2023-08-06T04:29:45;6.17;;;5.57;;
18376;SDS011;9315;52.624;13.544;2023-08-06T04:32:12;5.70;;;5.10;;
18376;SDS011;9315;52.624;13.544;2023-08-06T04:34:39;7.78;;;5.35;;
18376;SDS011;9315;52.624;13.544;2023-08-06T04:37:06;5.95;;;5.45;;
18376;SDS011;9315;52.624;13.544;2023-08-06T04:39:34;5.97;;;5.27;;
18376;SDS011;9315;52.624;13.544;2023-08-06T04:42:01;6.07;;;4.90;;
18376;SDS011;9315;52.624;13.544;2023-08-06T04:44:28;6.43;;;5.28;;
18376;SDS011;9315;52.624;13.544;2023-08-06T04:46:55;6.70;;;5.20;;
18376;SDS011;9315;52.624;13.544;2023-08-06T04:49:23;6.38;;;4.72;;
18376;SDS011;9315;52.624;13.544;2023-08-06T04:51:51;7.35;;;5.00;;
18376;SDS011;9315;52.624;13.544;2023-08-06T04:54:19;6.00;;;5.37;;
18376;SDS011;9315;52.624;13.544;2023-08-06T04:56:46;5.95;;;5.25;;
18376;SDS011;9315;52.624;13.544;2023-08-06T04:59:13;5.80;;;5.00;;
18376;SDS011;9315;52.624;13.544;2023-08-06T05:01:40;5.60;;;4.68;;
18376;SDS011;9315;52.624;13.544;2023-08-06T05:04:07;6.00;;;5.40;;
18376;SDS011;9315;52.624;13.544;2023-08-06T05:06:34;5.70;;;4.93;;
18376;SDS011;9315;52.624;13.544;2023-08-06T05:09:04;9.18;;;5.35;;
18376;SDS011;9315;52.624;13.544;2023-08-06T05:11:32;6.88;;;4.93;;
18376;SDS011;9315;52.624;13.544;2023-08-06T05:13:59;6.23;;;4.50;;
18376;SDS011;9315;52.624;13.544;2023-08-06T05:16:26;7.68;;;5.10;;
18376;SDS011;9315;52.624;13.544;2023-08-06T05:18:54;8.50;;;5.07;;
18376;SDS011;9315;52.624;13.544;2023-08-06T05:21:21;7.10;;;5.10;;
18376;SDS011;9315;52.624;13.544;2023-08-06T05:23:48;4.73;;;4.23;;
18376;SDS011;9315;52.624;13.544;2023-08-06T05:26:15;4.03;;;3.65;;
18376;SDS011;9315;52.624;13.544;2023-08-06T05:28:44;4.90;;;3.70;;
18376;SDS011;9315;52.624;13.544;2023-08-06T05:31:12;8.43;;;4.70;;
18376;SDS011;9315;52.624;13.544;2023-08-06T05:33:39;5.13;;;4.40;;
18376;SDS011;9315;52.624;13.544;2023-08-06T05:36:06;6.23;;;4.37;;
18376;SDS011;9315;52.624;13.544;2023-08-06T05:38:37;5.77;;;4.10;;
18376;SDS011;9315;52.624;13.544;2023-08-06T05:41:04;6.15;;;4.53;;
18376;SDS011;9315;52.624;13.544;2023-08-06T05:43:31;3.80;;;3.40;;
18376;SDS011;9315;52.624;13.544;2023-08-06T05:45:58;7.50;;;4.83;;
18376;SDS011;9315;52.624;13.544;2023-08-06T05:48:25;7.50;;;5.00;;
18376;SDS011;9315;52.624;13.544;2023-08-06T05:50:54;6.33;;;4.70;;
18376;SDS011;9315;52.624;13.544;2023-08-06T05:53:21;9.52;;;5.80;;
18376;SDS011;9315;52.624;13.544;2023-08-06T05:55:48;5.85;;;5.30;;
18376;SDS011;9315;52.624;13.544;2023-08-06T05:58:16;6.53;;;5.13;;
18376;SDS011;9315;52.624;13.544;2023-08-06T06:00:43;6.90;;;5.07;;
18376;SDS011;9315;52.624;13.544;2023-08-06T06:03:11;8.25;;;5.90;;
18376;SDS011;9315;52.624;13.544;2023-08-06T06:05:38;5.77;;;5.00;;
18376;SDS011;9315;52.624;13.544;2023-08-06T06:08:08;7.65;;;5.38;;
18376;SDS011;9315;52.624;13.544;2023-08-06T06:10:35;7.40;;;6.18;;
18376;SDS011;9315;52.624;13.544;2023-08-06T06:13:02;6.25;;;4.95;;
18376;SDS011;9315;52.624;13.544;2023-08-06T06:15:29;7.80;;;6.60;;
18376;SDS011;9315;52.624;13.544;2023-08-06T06:17:57;11.93;;;8.65;;
18376;SDS011;9315;52.624;13.544;2023-08-06T06:20:24;10.60;;;8.20;;
18376;SDS011;9315;52.624;13.544;2023-08-06T06:22:51;7.80;;;6.10;;
18376;SDS011;9315;52.624;13.544;2023-08-06T06:25:18;8.00;;;7.20;;
18376;SDS011;9315;52.624;13.544;2023-08-06T06:27:45;8.98;;;6.25;;
18376;SDS011;9315;52.624;13.544;2023-08-06T06:30:13;5.82;;;5.20;;
18376;SDS011;9315;52.624;13.544;2023-08-06T06:32:40;7.43;;;5.72;;
18376;SDS011;9315;52.624;13.544;2023-08-06T06:35:07;13.10;;;8.75;;
18376;SDS011;9315;52.624;13.544;2023-08-06T06:37:36;9.18;;;8.27;;
18376;SDS011;9315;52.624;13.544;2023-08-06T06:40:03;9.50;;;8.32;;
18376;SDS011;9315;52.624;13.544;2023-08-06T06:42:31;11.68;;;8.40;;
18376;SDS011;9315;52.624;13.544;2023-08-06T06:44:58;11.00;;;8.95;;
18376;SDS011;9315;52.624;13.544;2023-08-06T06:47:26;9.45;;;8.25;;
18376;SDS011;9315;52.624;13.544;2023-08-06T06:49:53;13.27;;;9.60;;
18376;SDS011;9315;52.624;13.544;2023-08-06T06:52:20;11.90;;;10.05;;
18376;SDS011;9315;52.624;13.544;2023-08-06T06:54:47;11.38;;;9.63;;
18376;SDS011;9315;52.624;13.544;2023-08-06T06:57:14;11.13;;;9.38;;
18376;SDS011;9315;52.624;13.544;2023-08-06T06:59:42;12.25;;;10.32;;
18376;SDS011;9315;52.624;13.544;2023-08-06T07:02:09;12.13;;;10.10;;
18376;SDS011;9315;52.624;13.544;2023-08-06T07:04:36;14.15;;;10.68;;
18376;SDS011;9315;52.624;13.544;2023-08-06T07:07:03;13.07;;;10.70;;
18376;SDS011;9315;52.624;13.544;2023-08-06T07:09:31;11.70;;;9.82;;
18376;SDS011;9315;52.624;13.544;2023-08-06T07:11:58;11.60;;;10.27;;
18376;SDS011;9315;52.624;13.544;2023-08-06T07:14:25;11.60;;;9.50;;
18376;SDS011;9315;52.624;13.544;2023-08-06T07:16:52;14.65;;;11.02;;
18376;SDS011;9315;52.624;13.544;2023-08-06T07:19:20;10.60;;;9.50;;
18376;SDS011;9315;52.624;13.544;2023-08-06T07:21:47;9.57;;;8.43;;
18376;SDS011;9315;52.624;13.544;2023-08-06T07:24:14;11.13;;;8.23;;
18376;SDS011;9315;52.624;13.544;2023-08-06T07:26:42;11.45;;;9.65;;
18376;SDS011;9315;52.624;13.544;2023-08-06T07:29:09;12.82;;;10.75;;
18376;SDS011;9315;52.624;13.544;2023-08-06T07:31:36;12.00;;;9.98;;
18376;SDS011;9315;52.624;13.544;2023-08-06T07:34:03;13.65;;;10.48;;
18376;SDS011;9315;52.624;13.544;2023-08-06T07:36:31;13.55;;;11.15;;
18376;SDS011;9315;52.624;13.544;2023-08-06T07:38:58;13.75;;;10.40;;
18376;SDS011;9315;52.624;13.544;2023-08-06T07:41:26;10.70;;;8.75;;
18376;SDS011;9315;52.624;13.544;2023-08-06T07:43:53;12.65;;;10.15;;
18376;SDS011;9315;52.624;13.544;2023-08-06T07:46:20;10.95;;;9.15;;
18376;SDS011;9315;52.624;13.544;2023-08-06T07:48:47;8.07;;;7.07;;
18376;SDS011;9315;52.624;13.544;2023-08-06T07:51:15;9.90;;;8.40;;
18376;SDS011;9315;52.624;13.544;2023-08-06T07:53:42;10.35;;;7.95;;
18376;SDS011;9315;52.624;13.544;2023-08-06T07:56:11;8.65;;;7.35;;
18376;SDS011;9315;52.624;13.544;2023-08-06T07:58:38;10.70;;;8.35;;
18376;SDS011;9315;52.624;13.544;2023-08-06T08:01:06;12.07;;;8.57;;
18376;SDS011;9315;52.624;13.544;2023-08-06T08:03:33;11.55;;;9.85;;
18376;SDS011;9315;52.624;13.544;2023-08-06T08:06:01;10.63;;;8.88;;
18376;SDS011;9315;52.624;13.544;2023-08-06T08:08:28;11.15;;;8.75;;
18376;SDS011;9315;52.624;13.544;2023-08-06T08:10:55;9.68;;;8.35;;
18376;SDS011;9315;52.624;13.544;2023-08-06T08:13:23;11.15;;;9.00;;
18376;SDS011;9315;52.624;13.544;2023-08-06T08:15:55;11.15;;;9.20;;
18376;SDS011;9315;52.624;13.544;2023-08-06T08:18:25;10.65;;;9.65;;
18376;SDS011;9315;52.624;13.544;2023-08-06T08:20:53;13.70;;;11.43;;
18376;SDS011;9315;52.624;13.544;2023-08-06T08:23:20;14.65;;;10.82;;
18376;SDS011;9315;52.624;13.544;2023-08-06T08:25:48;12.15;;;10.85;;
18376;SDS011;9315;52.624;13.544;2023-08-06T08:28:23;12.38;;;11.07;;
18376;SDS011;9315;52.624;13.544;2023-08-06T08:30:51;12.95;;;10.75;;
18376;SDS011;9315;52.624;13.544;2023-08-06T08:33:18;15.88;;;12.65;;
18376;SDS011;9315;52.624;13.544;2023-08-06T08:35:47;16.15;;;13.07;;
18376;SDS011;9315;52.624;13.544;2023-08-06T08:38:14;17.15;;;13.57;;
18376;SDS011;9315;52.624;13.544;2023-08-06T08:40:51;18.52;;;13.48;;
18376;SDS011;9315;52.624;13.544;2023-08-06T08:43:21;16.08;;;13.15;;
18376;SDS011;9315;52.624;13.544;2023-08-06T08:45:50;13.13;;;10.60;;
18376;SDS011;9315;52.624;13.544;2023-08-06T08:48:21;15.20;;;11.73;;
18376;SDS011;9315;52.624;13.544;2023-08-06T08:50:49;16.77;;;13.13;;
18376;SDS011;9315;52.624;13.544;2023-08-06T08:53:16;16.98;;;12.77;;
18376;SDS011;9315;52.624;13.544;2023-08-06T08:55:46;16.98;;;13.57;;
18376;SDS011;9315;52.624;13.544;2023-08-06T08:58:15;14.98;;;12.48;;
18376;SDS011;9315;52.624;13.544;2023-08-06T09:00:42;15.95;;;13.27;;
18376;SDS011;9315;52.624;13.544;2023-08-06T09:03:11;13.77;;;11.00;;
18376;SDS011;9315;52.624;13.544;2023-08-06T09:05:40;17.08;;;12.27;;
18376;SDS011;9315;52.624;13.544;2023-08-06T09:08:17;20.70;;;13.63;;
18376;SDS011;9315;52.624;13.544;2023-08-06T09:10:50;16.48;;;13.15;;
18376;SDS011;9315;52.624;13.544;2023-08-06T09:13:18;15.02;;;13.30;;
18376;SDS011;9315;52.624;13.544;2023-08-06T09:15:47;16.92;;;12.50;;
18376;SDS011;9315;52.624;13.544;2023-08-06T09:18:21;14.27;;;12.32;;
18376;SDS011;9315;52.624;13.544;2023-08-06T09:20:55;17.38;;;12.05;;
18376;SDS011;9315;52.624;13.544;2023-08-06T09:23:28;14.50;;;12.70;;
18376;SDS011;9315;52.624;13.544;2023-08-06T09:25:57;14.73;;;11.40;;
18376;SDS011;9315;52.624;13.544;2023-08-06T09:28:36;15.07;;;12.10;;
18376;SDS011;9315;52.624;13.544;2023-08-06T09:31:09;13.57;;;12.10;;
18376;SDS011;9315;52.624;13.544;2023-08-06T09:33:37;14.93;;;11.88;;
18376;SDS011;9315;52.624;13.544;2023-08-06T09:36:07;16.38;;;12.00;;
18376;SDS011;9315;52.624;13.544;2023-08-06T09:38:38;13.32;;;11.45;;
18376;SDS011;9315;52.624;13.544;2023-08-06T09:41:08;12.35;;;10.68;;
18376;SDS011;9315;52.624;13.544;2023-08-06T09:43:42;12.30;;;9.95;;
18376;SDS011;9315;52.624;13.544;2023-08-06T09:46:13;11.75;;;10.55;;
18376;SDS011;9315;52.624;13.544;2023-08-06T09:48:46;12.05;;;10.10;;
18376;SDS011;9315;52.624;13.544;2023-08-06T09:51:14;16.23;;;12.63;;
18376;SDS011;9315;52.624;13.544;2023-08-06T09:53:41;13.23;;;11.82;;
18376;SDS011;9315;52.624;13.544;2023-08-06T09:56:09;11.23;;;9.20;;
18376;SDS011;9315;52.624;13.544;2023-08-06T09:58:39;14.18;;;12.27;;
18376;SDS011;9315;52.624;13.544;2023-08-06T10:01:06;11.13;;;9.95;;
18376;SDS011;9315;52.624;13.544;2023-08-06T10:03:34;10.60;;;9.45;;
18376;SDS011;9315;52.624;13.544;2023-08-06T10:06:03;12.57;;;10.60;;
18376;SDS011;9315;52.624;13.544;2023-08-06T10:08:33;10.63;;;9.55;;
18376;SDS011;9315;52.624;13.544;2023-08-06T10:11:02;13.55;;;10.23;;
18376;SDS011;9315;52.624;13.544;2023-08-06T10:13:30;11.60;;;10.07;;
18376;SDS011;9315;52.624;13.544;2023-08-06T10:16:00;14.55;;;9.63;;
18376;SDS011;9315;52.624;13.544;2023-08-06T10:18:32;15.98;;;10.18;;
18376;SDS011;9315;52.624;13.544;2023-08-06T10:21:01;11.57;;;9.45;;
18376;SDS011;9315;52.624;13.544;2023-08-06T10:23:34;12.07;;;10.43;;
18376;SDS011;9315;52.624;13.544;2023-08-06T10:26:06;12.27;;;9.75;;
18376;SDS011;9315;52.624;13.544;2023-08-06T10:28:35;10.00;;;8.90;;
18376;SDS011;9315;52.624;13.544;2023-08-06T10:31:06;11.60;;;9.02;;
18376;SDS011;9315;52.624;13.544;2023-08-06T10:33:46;13.23;;;9.27;;
18376;SDS011;9315;52.624;13.544;2023-08-06T10:36:14;15.30;;;11.00;;
18376;SDS011;9315;52.624;13.544;2023-08-06T10:38:45;8.25;;;7.45;;
18376;SDS011;9315;52.624;13.544;2023-08-06T10:41:23;11.02;;;7.45;;
18376;SDS011;9315;52.624;13.544;2023-08-06T10:44:05;11.68;;;7.95;;
18376;SDS011;9315;52.624;13.544;2023-08-06T10:46:37;9.25;;;6.38;;
18376;SDS011;9315;52.624;13.544;2023-08-06T10:49:05;9.27;;;8.35;;
18376;SDS011;9315;52.624;13.544;2023-08-06T10:51:33;12.05;;;9.20;;
18376;SDS011;9315;52.624;13.544;2023-08-06T10:54:04;10.65;;;8.43;;
18376;SDS011;9315;52.624;13.544;2023-08-06T10:56:31;11.10;;;9.38;;
18376;SDS011;9315;52.624;13.544;2023-08-06T10:59:08;11.35;;;9.13;;
18376;SDS011;9315;52.624;13.544;2023-08-06T11:01:37;11.13;;;9.02;;
18376;SDS011;9315;52.624;13.544;2023-08-06T11:04:05;10.65;;;8.77;;
18376;SDS011;9315;52.624;13.544;2023-08-06T11:06:33;10.48;;;9.40;;
18376;SDS011;9315;52.624;13.544;2023-08-06T11:09:01;11.88;;;10.00;;
18376;SDS011;9315;52.624;13.544;2023-08-06T11:11:28;13.52;;;9.60;;
18376;SDS011;9315;52.624;13.544;2023-08-06T11:13:55;11.40;;;9.50;;
18376;SDS011;9315;52.624;13.544;2023-08-06T11:16:25;10.52;;;9.43;;
18376;SDS011;9315;52.624;13.544;2023-08-06T11:18:53;12.20;;;9.30;;
18376;SDS011;9315;52.624;13.544;2023-08-06T11:21:22;10.68;;;9.50;;
18376;SDS011;9315;52.624;13.544;2023-08-06T11:23:51;12.55;;;10.70;;
18376;SDS011;9315;52.624;13.544;2023-08-06T11:26:22;11.65;;;9.70;;
18376;SDS011;9315;52.624;13.544;2023-08-06T11:28:53;15.15;;;10.90;;
18376;SDS011;9315;52.624;13.544;2023-08-06T11:31:22;10.63;;;9.50;;
18376;SDS011;9315;52.624;13.544;2023-08-06T11:33:53;10.70;;;9.27;;
18376;SDS011;9315;52.624;13.544;2023-08-06T11:36:30;11.77;;;9.48;;
18376;SDS011;9315;52.624;13.544;2023-08-06T11:39:08;12.88;;;10.02;;
18376;SDS011;9315;52.624;13.544;2023-08-06T11:41:36;12.93;;;10.23;;
18376;SDS011;9315;52.624;13.544;2023-08-06T11:44:07;12.50;;;10.60;;
18376;SDS011;9315;52.624;13.544;2023-08-06T11:46:53;12.38;;;10.40;;
18376;SDS011;9315;52.624;13.544;2023-08-06T11:55:09;13.32;;;11.48;;
18376;SDS011;9315;52.624;13.544;2023-08-06T11:57:37;13.60;;;10.57;;
18376;SDS011;9315;52.624;13.544;2023-08-06T12:00:12;13.63;;;10.82;;
18376;SDS011;9315;52.624;13.544;2023-08-06T12:02:41;13.35;;;10.98;;
18376;SDS011;9315;52.624;13.544;2023-08-06T12:05:11;15.43;;;11.05;;
18376;SDS011;9315;52.624;13.544;2023-08-06T12:07:54;15.75;;;10.82;;
18376;SDS011;9315;52.624;13.544;2023-08-06T12:10:28;13.18;;;11.02;;
18376;SDS011;9315;52.624;13.544;2023-08-06T12:12:58;14.27;;;10.40;;
18376;SDS011;9315;52.624;13.544;2023-08-06T12:15:26;11.88;;;10.25;;
18376;SDS011;9315;52.624;13.544;2023-08-06T12:17:55;13.50;;;11.05;;
18376;SDS011;9315;52.624;13.544;2023-08-06T12:20:22;16.48;;;10.52;;
18376;SDS011;9315;52.624;13.544;2023-08-06T12:22:49;10.77;;;8.23;;
18376;SDS011;9315;52.624;13.544;2023-08-06T12:25:19;13.55;;;9.32;;
18376;SDS011;9315;52.624;13.544;2023-08-06T12:27:46;13.40;;;9.43;;
18376;SDS011;9315;52.624;13.544;2023-08-06T12:30:13;12.70;;;9.65;;
18376;SDS011;9315;52.624;13.544;2023-08-06T12:32:41;13.90;;;9.82;;
18376;SDS011;9315;52.624;13.544;2023-08-06T12:35:10;13.40;;;9.75;;
18376;SDS011;9315;52.624;13.544;2023-08-06T12:37:37;14.80;;;10.13;;
18376;SDS011;9315;52.624;13.544;2023-08-06T12:40:05;15.27;;;10.70;;
18376;SDS011;9315;52.624;13.544;2023-08-06T12:42:53;13.23;;;10.15;;
18376;SDS011;9315;52.624;13.544;2023-08-06T12:45:20;13.10;;;10.32;;
18376;SDS011;9315;52.624;13.544;2023-08-06T12:47:48;16.42;;;9.93;;
18376;SDS011;9315;52.624;13.544;2023-08-06T12:50:16;14.73;;;9.75;;
18376;SDS011;9315;52.624;13.544;2023-08-06T12:52:44;14.07;;;8.43;;
18376;SDS011;9315;52.624;13.544;2023-08-06T12:55:11;12.77;;;8.65;;
18376;SDS011;9315;52.624;13.544;2023-08-06T12:57:38;11.80;;;8.10;;
18376;SDS011;9315;52.624;13.544;2023-08-06T13:00:23;14.32;;;8.23;;
18376;SDS011;9315;52.624;13.544;2023-08-06T13:02:51;11.70;;;7.65;;
18376;SDS011;9315;52.624;13.544;2023-08-06T13:05:19;10.57;;;8.07;;
18376;SDS011;9315;52.624;13.544;2023-08-06T13:07:46;10.95;;;8.32;;
18376;SDS011;9315;52.624;13.544;2023-08-06T13:10:14;10.93;;;7.53;;
18376;SDS011;9315;52.624;13.544;2023-08-06T13:12:41;10.27;;;7.60;;
18376;SDS011;9315;52.624;13.544;2023-08-06T13:15:10;12.85;;;8.35;;
18376;SDS011;9315;52.624;13.544;2023-08-06T13:17:37;10.00;;;7.28;;
18376;SDS011;9315;52.624;13.544;2023-08-06T13:20:05;9.50;;;6.70;;
18376;SDS011;9315;52.624;13.544;2023-08-06T13:22:33;11.27;;;7.00;;
18376;SDS011;9315;52.624;13.544;2023-08-06T13:25:00;10.68;;;6.82;;
18376;SDS011;9315;52.624;13.544;2023-08-06T13:27:27;9.43;;;6.55;;
18376;SDS011;9315;52.624;13.544;2023-08-06T13:29:54;8.77;;;6.13;;
18376;SDS011;9315;52.624;13.544;2023-08-06T13:32:21;10.83;;;6.13;;
18376;SDS011;9315;52.624;13.544;2023-08-06T13:34:48;7.97;;;5.85;;
18376;SDS011;9315;52.624;13.544;2023-08-06T13:37:17;6.78;;;5.30;;
18376;SDS011;9315;52.624;13.544;2023-08-06T13:39:44;5.80;;;4.40;;
18376;SDS011;9315;52.624;13.544;2023-08-06T13:42:11;7.38;;;5.32;;
18376;SDS011;9315;52.624;13.544;2023-08-06T13:44:38;9.47;;;5.37;;
18376;SDS011;9315;52.624;13.544;2023-08-06T13:47:06;7.60;;;5.32;;
18376;SDS011;9315;52.624;13.544;2023-08-06T13:49:33;9.05;;;5.30;;
18376;SDS011;9315;52.624;13.544;2023-08-06T13:52:00;8.27;;;5.35;;
18376;SDS011;9315;52.624;13.544;2023-08-06T13:54:46;8.43;;;5.90;;
18376;SDS011;9315;52.624;13.544;2023-08-06T13:57:13;5.97;;;4.50;;
18376;SDS011;9315;52.624;13.544;2023-08-06T13:59:40;6.03;;;4.55;;
18376;SDS011;9315;52.624;13.544;2023-08-06T14:02:10;7.80;;;4.72;;
18376;SDS011;9315;52.624;13.544;2023-08-06T14:04:37;6.82;;;4.50;;
18376;SDS011;9315;52.624;13.544;2023-08-06T14:07:06;7.82;;;4.30;;
18376;SDS011;9315;52.624;13.544;2023-08-06T14:09:33;6.00;;;3.85;;
18376;SDS011;9315;52.624;13.544;2023-08-06T14:12:00;5.57;;;3.55;;
18376;SDS011;9315;52.624;13.544;2023-08-06T14:14:29;5.30;;;3.35;;
18376;SDS011;9315;52.624;13.544;2023-08-06T14:16:56;7.10;;;3.88;;
18376;SDS011;9315;52.624;13.544;2023-08-06T14:19:24;4.93;;;4.03;;
18376;SDS011;9315;52.624;13.544;2023-08-06T14:21:52;4.47;;;3.42;;
18376;SDS011;9315;52.624;13.544;2023-08-06T14:24:19;5.10;;;4.30;;
18376;SDS011;9315;52.624;13.544;2023-08-06T14:26:47;5.88;;;3.90;;
18376;SDS011;9315;52.624;13.544;2023-08-06T14:29:14;6.85;;;4.32;;
18376;SDS011;9315;52.624;13.544;2023-08-06T14:31:42;7.20;;;3.65;;
18376;SDS011;9315;52.624;13.544;2023-08-06T14:34:09;7.75;;;3.95;;
18376;SDS011;9315;52.624;13.544;2023-08-06T14:36:36;6.05;;;3.90;;
18376;SDS011;9315;52.624;13.544;2023-08-06T14:39:04;7.97;;;4.82;;
18376;SDS011;9315;52.624;13.544;2023-08-06T14:41:31;6.00;;;4.38;;
18376;SDS011;9315;52.624;13.544;2023-08-06T14:43:58;5.05;;;3.95;;
18376;SDS011;9315;52.624;13.544;2023-08-06T14:46:26;10.32;;;4.60;;
18376;SDS011;9315;52.624;13.544;2023-08-06T14:48:53;6.10;;;4.63;;
18376;SDS011;9315;52.624;13.544;2023-08-06T14:51:20;6.70;;;4.70;;
18376;SDS011;9315;52.624;13.544;2023-08-06T14:53:48;7.80;;;5.15;;
18376;SDS011;9315;52.624;13.544;2023-08-06T14:56:15;11.10;;;5.32;;
18376;SDS011;9315;52.624;13.544;2023-08-06T14:58:42;8.07;;;4.90;;
18376;SDS011;9315;52.624;13.544;2023-08-06T15:01:10;6.82;;;5.00;;